Terminal Aerodrome Forecast
Issued by NWS

Home | Current Version | Previous Version | Text Only | Print | Product List | Glossary On
Versions: 1 2 3 4 5 6 7 8 9 10 11 12 13 14 15 16
000
FTUS43 KBIS 231000 AAA
TAFJMS
TAF AMD
KJMS 231005Z 2310/2406 28010KT P6SM -RA BKN040 OVC050
     FM231200 28015KT P6SM BKN035 OVC050
     FM231600 29021G31KT P6SM VCSH OVC025
     FM232100 32026G32KT 6SM -SN BLSN OVC015=

USA.gov is the U.S. government's official web portal to all federal, state and local government web resources and services.